Time;durP1;ratioP1;P1;durP2;ratioP2;P2;SDS_P1;SDS_P2;PMS_P1;PMS_P2;Temp;Humidity;BMP_temperature;BMP_pressure;BME280_temperature;BME280_humidity;BME280_pressure;Samples;Min_cycle;Max_cycle;Signal;HPM_P1;HPM_P2
2023/10/18 00:00:31;;;;;;;13.35;5.20;;;4.90;99.90;;;;;;4960182;28;20505;-68
2023/10/18 00:02:57;;;;;;;10.27;5.47;;;5.00;99.90;;;;;;4943925;29;20047;-68
2023/10/18 00:05:25;;;;;;;14.65;6.70;;;4.90;99.90;;;;;;4944784;28;20079;-68
2023/10/18 00:07:57;;;;;;;11.48;6.05;;;5.00;99.90;;;;;;4963836;28;20049;-68
2023/10/18 00:10:23;;;;;;;12.10;6.15;;;5.00;99.90;;;;;;4962415;28;20121;-67
2023/10/18 00:12:52;;;;;;;13.38;6.97;;;5.00;99.90;;;;;;4960446;28;20054;-68
2023/10/18 00:15:18;;;;;;;13.82;6.47;;;5.00;99.90;;;;;;4960337;28;20055;-69
2023/10/18 00:17:44;;;;;;;14.07;7.32;;;5.00;99.90;;;;;;4956258;28;20038;-68
2023/10/18 00:20:19;;;;;;;16.90;6.90;;;5.00;99.90;;;;;;4963415;28;20414;-68
2023/10/18 00:22:45;;;;;;;13.57;6.75;;;5.10;99.90;;;;;;4960768;28;20082;-69
2023/10/18 00:25:12;;;;;;;14.10;7.38;;;5.00;99.90;;;;;;4959983;28;20064;-68
2023/10/18 00:27:38;;;;;;;13.90;7.15;;;5.00;99.90;;;;;;4965402;28;20053;-68
2023/10/18 00:30:18;;;;;;;13.23;7.57;;;5.00;99.90;;;;;;4959833;28;20043;-67
2023/10/18 00:32:46;;;;;;;17.10;8.52;;;5.00;99.90;;;;;;4943544;28;20747;-68
2023/10/18 00:35:16;;;;;;;17.15;9.55;;;5.00;99.90;;;;;;4963210;28;20115;-68
2023/10/18 00:37:43;;;;;;;15.40;9.13;;;5.00;99.90;;;;;;4942324;28;20256;-67
2023/10/18 00:42:53;;;;;;;20.90;11.18;;;5.00;99.90;;;;;;4947102;28;20061;-67
2023/10/18 00:45:21;;;;;;;22.95;11.18;;;5.00;99.90;;;;;;4955705;28;20051;-67
2023/10/18 00:47:48;;;;;;;19.88;12.70;;;5.00;99.90;;;;;;4962958;28;20039;-68
2023/10/18 00:50:15;;;;;;;22.02;12.93;;;5.00;99.90;;;;;;4942425;28;20055;-69
2023/10/18 00:52:41;;;;;;;20.30;11.95;;;5.00;99.90;;;;;;4959581;28;20072;-68
2023/10/18 00:55:09;;;;;;;28.42;12.43;;;5.00;99.90;;;;;;4960426;28;20074;-69
2023/10/18 00:57:36;;;;;;;17.35;11.60;;;5.00;99.90;;;;;;4962849;28;20049;-70
2023/10/18 01:00:11;;;;;;;19.65;12.05;;;5.00;99.90;;;;;;4962451;28;20050;-67
2023/10/18 01:02:39;;;;;;;18.52;11.60;;;5.00;99.90;;;;;;4952024;28;20124;-68
2023/10/18 01:05:11;;;;;;;21.73;12.02;;;5.00;99.90;;;;;;4962518;28;20054;-68
2023/10/18 01:07:37;;;;;;;23.67;12.20;;;5.00;99.90;;;;;;4951914;28;20075;-67
2023/10/18 01:10:07;;;;;;;19.20;11.95;;;5.30;99.90;;;;;;4959566;28;20139;-68
2023/10/18 01:12:34;;;;;;;21.05;12.65;;;5.00;99.90;;;;;;4960354;28;20488;-67
2023/10/18 01:15:01;;;;;;;22.48;12.18;;;5.00;99.90;;;;;;4959657;28;20051;-67
2023/10/18 01:17:26;;;;;;;22.13;11.82;;;5.00;99.90;;;;;;4959997;28;20550;-68
2023/10/18 01:19:53;;;;;;;20.40;12.20;;;5.00;99.90;;;;;;4945714;28;20050;-67
2023/10/18 01:22:19;;;;;;;21.48;12.52;;;5.00;99.90;;;;;;4945654;28;20047;-68
2023/10/18 01:24:46;;;;;;;21.73;12.90;;;5.00;99.90;;;;;;4959972;28;20490;-67
2023/10/18 01:27:12;;;;;;;20.33;12.68;;;5.00;99.90;;;;;;4959470;28;20122;-68
2023/10/18 01:29:39;;;;;;;21.55;12.30;;;5.00;99.90;;;;;;4960039;28;20162;-68
2023/10/18 01:32:05;;;;;;;20.85;13.32;;;5.00;99.90;;;;;;4960079;28;20495;-67
2023/10/18 01:34:31;;;;;;;21.23;13.18;;;5.10;99.90;;;;;;4942046;29;20053;-69
2023/10/18 01:37:00;;;;;;;23.92;13.93;;;5.00;99.90;;;;;;4944354;28;20051;-68
2023/10/18 01:39:29;;;;;;;21.63;12.05;;;5.00;99.90;;;;;;4962449;28;20046;-68
2023/10/18 01:41:55;;;;;;;25.45;14.20;;;5.00;99.90;;;;;;4960779;28;20049;-68
2023/10/18 01:44:27;;;;;;;22.75;12.80;;;5.10;99.90;;;;;;4941938;29;20063;-70
2023/10/18 01:47:06;;;;;;;26.13;13.88;;;5.10;99.90;;;;;;4942108;28;20043;-67
2023/10/18 01:49:38;;;;;;;20.65;12.45;;;5.10;99.90;;;;;;4962485;28;20038;-68
2023/10/18 01:52:06;;;;;;;25.10;13.10;;;5.10;99.90;;;;;;4955773;28;20051;-67
2023/10/18 01:54:32;;;;;;;21.67;12.15;;;5.00;99.90;;;;;;4962387;28;20054;-71
2023/10/18 01:56:58;;;;;;;22.63;12.80;;;5.10;99.90;;;;;;4962315;28;20046;-68
2023/10/18 01:59:27;;;;;;;21.75;12.35;;;5.10;99.90;;;;;;4954966;28;20049;-70
2023/10/18 02:01:55;;;;;;;22.38;12.25;;;5.00;99.90;;;;;;4944888;28;20072;-68
2023/10/18 02:04:24;;;;;;;22.45;13.07;;;5.00;99.90;;;;;;4960594;28;20043;-69
2023/10/18 02:06:50;;;;;;;23.85;13.05;;;5.00;99.90;;;;;;4959383;28;20510;-67
2023/10/18 02:09:16;;;;;;;19.98;12.18;;;5.00;99.90;;;;;;4959108;28;20558;-68
2023/10/18 02:11:43;;;;;;;21.83;12.57;;;5.00;99.90;;;;;;4964977;28;20055;-69
2023/10/18 02:14:10;;;;;;;22.55;13.63;;;5.00;99.90;;;;;;4965714;28;20551;-67
2023/10/18 02:16:36;;;;;;;23.35;12.70;;;5.00;99.90;;;;;;4957539;28;20051;-67
2023/10/18 02:19:01;;;;;;;21.58;12.80;;;5.00;99.90;;;;;;4965111;28;20102;-68
2023/10/18 02:21:27;;;;;;;23.90;13.80;;;5.00;99.90;;;;;;4947406;28;20051;-67
2023/10/18 02:23:53;;;;;;;19.65;13.02;;;5.00;99.90;;;;;;4962403;28;20039;-67
2023/10/18 02:26:31;;;;;;;21.65;12.68;;;5.00;99.90;;;;;;4962574;28;20043;-67
2023/10/18 02:29:05;;;;;;;22.42;13.27;;;5.00;99.90;;;;;;4954654;28;20122;-68
2023/10/18 02:31:33;;;;;;;21.65;12.05;;;5.00;99.90;;;;;;4966349;28;20050;-68
2023/10/18 02:34:03;;;;;;;26.67;12.52;;;5.00;99.90;;;;;;4962153;28;20063;-68
2023/10/18 02:36:51;;;;;;;23.08;11.80;;;4.90;99.90;;;;;;4962413;28;20061;-69
2023/10/18 02:39:24;;;;;;;24.15;13.10;;;4.90;99.90;;;;;;4937684;29;20051;-68
2023/10/18 02:41:51;;;;;;;26.40;13.50;;;4.90;99.90;;;;;;4945127;28;20051;-68
2023/10/18 02:44:23;;;;;;;22.33;13.02;;;4.90;99.90;;;;;;4947489;28;20060;-68
2023/10/18 02:46:54;;;;;;;21.50;12.55;;;4.90;99.90;;;;;;4965076;28;20046;-67
2023/10/18 02:49:22;;;;;;;21.85;12.02;;;4.90;99.90;;;;;;4954673;28;20047;-67
2023/10/18 02:51:49;;;;;;;25.48;12.95;;;4.90;99.90;;;;;;4961580;28;20047;-67
2023/10/18 02:56:40;;;;;;;24.20;13.50;;;4.90;99.90;;;;;;4947145;28;20138;-68
2023/10/18 02:59:07;;;;;;;21.45;12.13;;;4.90;99.90;;;;;;4963949;28;20161;-67
2023/10/18 03:01:39;;;;;;;21.98;12.68;;;4.90;99.90;;;;;;4940292;28;20057;-67
2023/10/18 03:04:08;;;;;;;19.63;12.70;;;4.90;99.90;;;;;;4964016;28;20170;-70
2023/10/18 03:06:38;;;;;;;23.50;13.98;;;4.90;99.90;;;;;;4959806;28;20415;-68
2023/10/18 03:09:05;;;;;;;28.50;14.20;;;4.90;99.90;;;;;;4961320;28;20122;-68
2023/10/18 03:11:32;;;;;;;23.15;13.68;;;4.90;99.90;;;;;;4962893;28;20491;-67
2023/10/18 03:13:58;;;;;;;20.38;13.65;;;4.80;99.90;;;;;;4959529;28;20129;-68
2023/10/18 03:16:38;;;;;;;20.88;13.05;;;4.90;99.90;;;;;;4956059;28;20524;-68
2023/10/18 03:19:12;;;;;;;22.00;13.27;;;4.90;99.90;;;;;;4964032;28;20607;-67
2023/10/18 03:21:41;;;;;;;20.73;13.95;;;4.80;99.90;;;;;;4944680;28;20054;-68
2023/10/18 03:24:07;;;;;;;23.02;13.35;;;4.90;99.90;;;;;;4959877;28;20050;-67
2023/10/18 03:26:35;;;;;;;20.65;13.48;;;4.90;99.90;;;;;;4963248;28;20051;-67
2023/10/18 03:29:11;;;;;;;24.50;14.75;;;4.80;99.90;;;;;;4955217;28;20062;-67
2023/10/18 03:31:40;;;;;;;23.27;13.90;;;4.80;99.90;;;;;;4962410;28;20051;-68
2023/10/18 03:34:09;;;;;;;23.08;14.48;;;4.80;99.90;;;;;;4945596;29;20055;-67
2023/10/18 03:36:48;;;;;;;24.00;14.52;;;4.80;99.90;;;;;;4961178;28;20451;-67
2023/10/18 03:39:17;;;;;;;22.67;13.50;;;4.90;99.90;;;;;;4960511;28;20044;-68
2023/10/18 03:41:44;;;;;;;20.90;13.90;;;4.90;99.90;;;;;;4960861;28;20055;-68
2023/10/18 03:44:13;;;;;;;25.13;14.13;;;4.80;99.90;;;;;;4961846;28;20162;-67
2023/10/18 03:46:39;;;;;;;21.35;13.93;;;4.90;99.90;;;;;;4958065;28;20113;-67
2023/10/18 03:49:10;;;;;;;24.15;14.15;;;4.90;99.90;;;;;;4945554;28;20043;-67
2023/10/18 03:51:37;;;;;;;23.58;14.75;;;4.90;99.90;;;;;;4963700;28;20054;-66
2023/10/18 03:54:04;;;;;;;25.17;13.85;;;4.90;99.90;;;;;;4957319;28;20493;-67
2023/10/18 03:56:36;;;;;;;26.23;13.95;;;4.90;99.90;;;;;;4963858;28;20049;-66
2023/10/18 03:59:25;;;;;;;24.25;14.02;;;4.80;99.90;;;;;;4963443;28;20057;-67
2023/10/18 04:02:15;;;;;;;23.33;13.80;;;4.80;99.90;;;;;;4942528;28;20047;-67
2023/10/18 04:04:54;;;;;;;23.02;14.68;;;4.80;99.90;;;;;;4962020;28;20049;-67
2023/10/18 04:07:20;;;;;;;24.58;15.18;;;4.90;99.90;;;;;;4962053;28;20059;-67
2023/10/18 04:09:53;;;;;;;22.88;14.90;;;4.90;99.90;;;;;;4960569;28;20110;-67
2023/10/18 04:12:21;;;;;;;27.92;16.20;;;4.90;99.90;;;;;;4947590;28;20058;-67
2023/10/18 04:14:53;;;;;;;19.73;13.40;;;4.90;99.90;;;;;;4956871;28;20406;-67
2023/10/18 04:22:46;;;;;;;23.27;14.48;;;4.80;99.90;;;;;;4952052;28;20489;-67
2023/10/18 04:25:25;;;;;;;26.27;15.70;;;4.80;99.90;;;;;;4960039;28;20473;-66
2023/10/18 04:27:57;;;;;;;23.92;15.00;;;4.90;99.90;;;;;;4963097;28;20047;-67
2023/10/18 04:30:24;;;;;;;25.75;15.13;;;4.80;99.90;;;;;;4960637;28;20065;-67
2023/10/18 04:35:45;;;;;;;22.65;15.35;;;4.80;99.90;;;;;;4920365;29;20048;-67
2023/10/18 04:38:22;;;;;;;23.45;15.20;;;4.80;99.90;;;;;;4919184;29;20110;-67
2023/10/18 04:41:06;;;;;;;26.15;15.43;;;4.80;99.90;;;;;;4920057;29;20431;-67
2023/10/18 04:43:34;;;;;;;26.08;15.85;;;4.80;99.90;;;;;;4918931;29;20048;-67
2023/10/18 04:46:07;;;;;;;23.02;14.98;;;4.80;99.90;;;;;;4905185;29;20135;-67
2023/10/18 04:54:03;;;;;;;23.85;14.82;;;4.80;99.90;;;;;;4904136;29;20056;-68
2023/10/18 04:56:37;;;;;;;26.40;16.17;;;4.80;99.90;;;;;;4919627;29;20087;-66
2023/10/18 04:59:10;;;;;;;25.90;17.25;;;4.90;99.90;;;;;;4919123;29;20098;-66
2023/10/18 05:01:56;;;;;;;23.27;15.18;;;4.80;99.90;;;;;;4919344;29;20059;-67
2023/10/18 05:04:32;;;;;;;21.73;15.27;;;4.80;99.90;;;;;;4918176;29;20054;-67
2023/10/18 05:07:00;;;;;;;26.38;16.08;;;4.80;99.90;;;;;;4919671;29;20140;-67
2023/10/18 05:09:43;;;;;;;29.30;16.23;;;4.80;99.90;;;;;;4921644;29;20052;-67
2023/10/18 05:14:43;;;;;;;31.25;16.67;;;4.80;99.90;;;;;;4959526;28;20109;-68
2023/10/18 05:17:17;;;;;;;32.15;16.30;;;4.80;99.90;;;;;;4959504;28;20062;-67
2023/10/18 05:19:44;;;;;;;22.63;16.08;;;4.80;99.90;;;;;;4961823;28;20564;-67
2023/10/18 05:22:19;;;;;;;26.45;16.67;;;4.70;99.90;;;;;;4945184;28;20047;-68
2023/10/18 05:27:38;;;;;;;28.50;17.17;;;4.70;99.90;;;;;;4901504;29;20532;-67
2023/10/18 05:30:15;;;;;;;24.17;16.40;;;4.70;99.90;;;;;;4902299;29;20060;-67
2023/10/18 05:32:54;;;;;;;30.35;17.60;;;4.70;99.90;;;;;;4900093;29;20798;-67
2023/10/18 05:35:21;;;;;;;27.27;17.63;;;4.70;99.90;;;;;;4868620;29;20104;-67
2023/10/18 05:37:50;;;;;;;29.77;18.20;;;4.70;99.90;;;;;;4901947;29;20527;-67
2023/10/18 05:43:52;;;;;;;28.42;17.67;;;4.70;99.90;;;;;;4893470;29;20859;-67
2023/10/18 05:45:56;;;;;;;27.00;18.15;;;4.70;99.90;;;;;;4894708;29;20078;-68
2023/10/18 05:48:23;;;;;;;28.50;17.98;;;4.70;99.90;;;;;;4903684;29;20055;-68
2023/10/18 05:50:49;;;;;;;28.90;18.35;;;4.70;99.90;;;;;;4888086;29;20048;-67
2023/10/18 05:53:18;;;;;;;28.15;17.92;;;4.70;99.90;;;;;;4905951;29;20060;-67
2023/10/18 05:55:54;;;;;;;27.55;17.80;;;4.70;99.90;;;;;;4899727;29;20056;-67
2023/10/18 05:58:26;;;;;;;31.27;17.92;;;4.70;99.90;;;;;;4896285;29;20076;-69
2023/10/18 06:00:57;;;;;;;28.00;17.27;;;4.70;99.90;;;;;;4898260;29;20041;-67
2023/10/18 06:03:27;;;;;;;32.67;18.40;;;4.80;99.90;;;;;;4905673;29;20048;-67
2023/10/18 06:05:57;;;;;;;27.60;17.63;;;4.70;99.90;;;;;;4947908;28;20055;-67
2023/10/18 06:08:23;;;;;;;28.90;17.92;;;5.10;99.90;;;;;;4937576;29;20118;-67
2023/10/18 06:11:08;;;;;;;29.52;18.50;;;4.70;99.90;;;;;;4962563;28;20059;-67
2023/10/18 06:13:37;;;;;;;28.13;18.05;;;4.80;99.90;;;;;;4955426;28;20509;-67
2023/10/18 06:16:19;;;;;;;26.42;18.13;;;4.80;99.90;;;;;;4962523;28;20039;-67
2023/10/18 06:18:49;;;;;;;30.75;18.20;;;4.80;99.90;;;;;;4956081;28;20050;-67
2023/10/18 06:21:18;;;;;;;29.75;19.05;;;4.80;99.90;;;;;;4945593;28;20130;-67
2023/10/18 06:23:56;;;;;;;27.27;17.85;;;4.80;99.90;;;;;;4964363;28;20042;-67
2023/10/18 06:26:29;;;;;;;28.83;17.67;;;4.80;99.90;;;;;;4963261;28;20444;-68
2023/10/18 06:29:00;;;;;;;27.27;17.38;;;4.80;99.90;;;;;;4965535;28;20067;-67
2023/10/18 06:31:29;;;;;;;33.70;17.90;;;4.80;99.90;;;;;;4964765;28;20498;-68
2023/10/18 06:34:04;;;;;;;31.65;17.95;;;4.80;99.90;;;;;;4958849;28;20039;-68
2023/10/18 06:36:33;;;;;;;32.63;18.42;;;4.80;99.90;;;;;;4947015;28;20093;-70
2023/10/18 06:38:59;;;;;;;30.30;18.85;;;4.80;99.90;;;;;;4965069;28;20046;-69
2023/10/18 06:41:29;;;;;;;27.98;18.05;;;5.30;99.90;;;;;;4964638;28;20043;-68
2023/10/18 06:43:55;;;;;;;30.27;18.55;;;4.90;99.90;;;;;;4943978;28;20059;-68
2023/10/18 06:46:26;;;;;;;26.92;17.70;;;4.90;99.90;;;;;;4964984;28;20057;-67
2023/10/18 06:48:58;;;;;;;28.60;18.38;;;4.90;99.90;;;;;;4965035;28;20054;-66
2023/10/18 06:51:40;;;;;;;31.15;19.25;;;4.90;99.90;;;;;;4964044;28;20089;-67
2023/10/18 06:54:07;;;;;;;29.23;17.58;;;5.00;99.90;;;;;;4964570;28;20054;-68
2023/10/18 06:56:45;;;;;;;27.40;17.70;;;5.00;99.90;;;;;;4946917;28;20046;-68
2023/10/18 06:59:11;;;;;;;27.42;17.50;;;5.00;99.90;;;;;;4944210;28;20145;-67
2023/10/18 07:01:55;;;;;;;33.25;18.48;;;5.50;99.90;;;;;;4961713;28;20086;-68
2023/10/18 07:04:35;;;;;;;30.38;18.98;;;5.40;99.90;;;;;;4936832;29;20122;-68
2023/10/18 07:07:10;;;;;;;29.73;18.13;;;5.00;99.90;;;;;;4944982;28;20051;-67
2023/10/18 07:09:36;;;;;;;29.70;18.15;;;5.10;99.90;;;;;;4954882;28;20047;-67
2023/10/18 07:12:10;;;;;;;30.02;18.63;;;5.10;99.90;;;;;;4961434;28;20044;-67
2023/10/18 07:14:37;;;;;;;29.77;17.85;;;5.20;99.90;;;;;;4957816;28;20053;-67
2023/10/18 07:17:04;;;;;;;27.20;17.05;;;5.20;99.90;;;;;;4964333;28;20497;-67
2023/10/18 07:19:33;;;;;;;26.40;16.88;;;5.20;99.90;;;;;;4961717;28;20043;-68
2023/10/18 07:22:06;;;;;;;28.75;17.90;;;5.30;99.90;;;;;;4943940;29;20055;-68
2023/10/18 07:24:32;;;;;;;28.35;18.02;;;5.30;99.90;;;;;;4963439;28;20059;-69
2023/10/18 07:26:59;;;;;;;29.63;17.42;;;5.30;99.90;;;;;;4964593;28;20042;-67
2023/10/18 07:29:27;;;;;;;25.60;17.60;;;5.40;99.90;;;;;;4964049;28;20078;-67
2023/10/18 07:31:59;;;;;;;30.13;17.20;;;5.40;99.90;;;;;;4943989;29;20105;-67
2023/10/18 07:34:32;;;;;;;32.17;17.70;;;5.50;99.90;;;;;;4965480;28;20050;-67
2023/10/18 07:37:00;;;;;;;24.88;16.67;;;5.50;99.90;;;;;;4954324;28;20379;-68
2023/10/18 07:39:26;;;;;;;29.02;18.00;;;5.60;99.90;;;;;;4961207;28;20047;-68
2023/10/18 07:41:52;;;;;;;28.92;18.05;;;5.60;99.90;;;;;;4963340;28;20042;-67
2023/10/18 07:44:18;;;;;;;26.75;17.67;;;5.70;99.90;;;;;;4957849;28;20423;-68
2023/10/18 07:46:44;;;;;;;30.00;17.65;;;5.70;99.90;;;;;;4962031;28;20420;-67
2023/10/18 07:49:16;;;;;;;34.60;18.13;;;5.80;99.90;;;;;;4967190;28;20039;-67
2023/10/18 07:51:48;;;;;;;25.27;16.70;;;6.10;99.90;;;;;;4960511;28;20503;-68
2023/10/18 07:54:17;;;;;;;25.90;16.40;;;5.90;99.90;;;;;;4963307;28;20058;-67
2023/10/18 07:56:50;;;;;;;29.10;17.63;;;5.90;99.90;;;;;;4942472;29;20082;-68
2023/10/18 07:59:32;;;;;;;30.48;17.23;;;5.90;99.90;;;;;;4953282;28;20050;-69
2023/10/18 08:04:44;;;;;;;25.60;16.23;;;6.10;99.90;;;;;;4963712;28;20083;-67
2023/10/18 08:07:15;;;;;;;26.90;16.30;;;6.20;99.90;;;;;;4961149;28;20055;-68
2023/10/18 08:09:41;;;;;;;26.02;14.95;;;6.20;99.90;;;;;;4959329;28;20083;-68
2023/10/18 08:14:50;;;;;;;23.92;14.82;;;6.30;99.90;;;;;;4946305;28;20133;-67
2023/10/18 08:17:40;;;;;;;24.88;15.18;;;6.40;99.90;;;;;;4962272;28;20569;-67
2023/10/18 08:22:51;;;;;;;22.65;14.20;;;6.50;99.90;;;;;;4953853;28;20106;-68
2023/10/18 08:25:51;;;;;;;24.52;14.82;;;6.60;99.90;;;;;;4943207;28;20533;-67
2023/10/18 08:28:13;;;;;;;21.90;14.05;;;6.60;99.90;;;;;;4959077;28;20093;-67
2023/10/18 08:33:07;;;;;;;23.23;13.70;;;6.80;99.90;;;;;;4963451;28;20051;-68
2023/10/18 08:35:34;;;;;;;20.42;13.38;;;6.80;99.90;;;;;;4962335;28;20129;-68
2023/10/18 08:38:01;;;;;;;24.17;14.65;;;6.90;99.90;;;;;;4956527;28;20043;-67
2023/10/18 08:43:28;;;;;;;21.83;13.77;;;7.00;99.90;;;;;;4952103;28;20867;-68
2023/10/18 08:45:59;;;;;;;20.27;13.95;;;7.10;99.90;;;;;;4951808;28;20142;-67
2023/10/18 08:48:29;;;;;;;22.27;13.50;;;7.20;99.90;;;;;;4956451;28;20478;-67
2023/10/18 08:50:58;;;;;;;22.33;13.55;;;7.20;99.90;;;;;;4963254;28;20138;-68
2023/10/18 08:53:26;;;;;;;20.88;12.98;;;7.30;99.90;;;;;;4942693;29;20073;-68
2023/10/18 08:55:57;;;;;;;20.30;13.18;;;7.50;99.90;;;;;;4960643;28;20047;-69
2023/10/18 08:58:27;;;;;;;25.98;13.95;;;7.50;99.90;;;;;;4940288;29;20090;-68
2023/10/18 09:03:28;;;;;;;19.95;13.65;;;7.60;99.90;;;;;;4963433;28;20051;-69
2023/10/18 09:06:05;;;;;;;24.95;12.73;;;7.60;99.90;;;;;;4962798;28;20407;-69
2023/10/18 09:08:38;;;;;;;17.63;12.68;;;7.70;99.90;;;;;;4952740;28;20059;-69
2023/10/18 09:11:21;;;;;;;20.33;13.30;;;7.70;99.90;;;;;;4957571;28;20418;-70
2023/10/18 09:14:10;;;;;;;21.05;12.90;;;7.80;99.90;;;;;;4944994;28;20035;-69
2023/10/18 09:16:40;;;;;;;18.92;12.23;;;7.90;99.90;;;;;;4952698;28;20047;-68
2023/10/18 09:19:07;;;;;;;17.55;11.75;;;8.00;99.90;;;;;;4960045;28;20086;-68
2023/10/18 09:21:36;;;;;;;19.23;12.70;;;8.00;99.90;;;;;;4946913;28;20047;-69
2023/10/18 09:24:11;;;;;;;20.52;12.80;;;8.30;99.90;;;;;;4963563;28;20046;-68
2023/10/18 09:26:40;;;;;;;18.08;11.63;;;8.10;99.90;;;;;;4963303;28;20039;-69
2023/10/18 09:29:09;;;;;;;17.52;11.77;;;8.20;99.90;;;;;;4963041;28;20107;-69
2023/10/18 09:31:49;;;;;;;22.88;11.98;;;8.30;99.90;;;;;;4965952;28;20062;-69
2023/10/18 09:34:16;;;;;;;21.10;11.75;;;8.40;99.90;;;;;;4965356;28;20122;-69
2023/10/18 09:36:55;;;;;;;20.48;12.13;;;8.40;99.90;;;;;;4964171;28;20061;-69
2023/10/18 09:39:24;;;;;;;18.13;11.75;;;8.50;99.90;;;;;;4946103;29;20053;-69
2023/10/18 09:41:51;;;;;;;17.30;11.23;;;8.50;99.90;;;;;;4965496;28;20071;-67
2023/10/18 09:44:18;;;;;;;17.70;11.02;;;8.60;99.90;;;;;;4948616;28;20114;-69
2023/10/18 09:46:48;;;;;;;19.10;11.30;;;8.70;99.90;;;;;;4965088;28;20047;-69
2023/10/18 09:49:21;;;;;;;15.18;10.32;;;8.70;99.90;;;;;;4963107;28;20090;-70
2023/10/18 09:51:53;;;;;;;14.90;10.02;;;8.80;99.90;;;;;;4963362;28;20058;-68
2023/10/18 09:54:21;;;;;;;18.73;10.25;;;8.80;99.90;;;;;;4946107;28;20498;-69
2023/10/18 09:56:48;;;;;;;14.73;10.25;;;8.90;99.90;;;;;;4963077;28;20136;-69
2023/10/18 09:59:26;;;;;;;15.80;9.07;;;9.00;99.90;;;;;;4965962;28;20467;-69
2023/10/18 10:01:59;;;;;;;17.45;10.30;;;9.10;99.90;;;;;;4946519;28;20110;-69
2023/10/18 10:04:32;;;;;;;16.80;10.35;;;9.20;99.90;;;;;;4956061;28;20565;-70
2023/10/18 10:07:27;;;;;;;15.85;10.82;;;9.30;99.90;;;;;;4945500;28;20051;-69
2023/10/18 10:09:47;;;;;;;16.48;10.80;;;9.30;99.90;;;;;;4965400;28;20046;-68
2023/10/18 10:12:19;;;;;;;17.15;10.40;;;9.30;99.90;;;;;;4964053;28;20090;-70
2023/10/18 10:14:45;;;;;;;17.90;10.38;;;9.40;99.90;;;;;;4944723;29;20050;-73
2023/10/18 10:17:18;;;;;;;16.27;10.45;;;9.60;99.90;;;;;;4953432;28;20130;-69
2023/10/18 10:19:54;;;;;;;17.02;10.50;;;9.60;99.90;;;;;;4962701;28;20058;-70
2023/10/18 10:22:24;;;;;;;16.58;10.18;;;10.10;99.90;;;;;;4962562;28;20054;-68
2023/10/18 10:25:05;;;;;;;14.85;9.25;;;9.70;99.90;;;;;;4928659;29;20059;-69
2023/10/18 10:30:03;;;;;;;16.98;10.10;;;9.90;99.90;;;;;;4959438;28;20054;-72
2023/10/18 10:32:30;;;;;;;16.33;9.93;;;9.90;99.90;;;;;;4963143;28;20057;-69
2023/10/18 10:35:16;;;;;;;15.13;9.85;;;10.00;99.90;;;;;;4962269;28;20051;-71
2023/10/18 10:37:53;;;;;;;15.02;10.35;;;10.00;99.90;;;;;;4964733;28;20509;-70
2023/10/18 10:43:02;;;;;;;15.63;9.90;;;10.20;99.90;;;;;;4937185;29;20074;-69
2023/10/18 10:45:30;;;;;;;14.95;10.25;;;10.20;99.90;;;;;;4945163;29;20051;-71
2023/10/18 10:51:23;;;;;;;15.90;10.37;;;10.20;99.90;;;;;;4939357;28;20093;-68
2023/10/18 10:53:58;;;;;;;15.77;9.90;;;10.30;99.90;;;;;;4963612;28;20404;-70
2023/10/18 10:56:26;;;;;;;;;;;10.30;99.90;;;;;;4962157;28;20039;-70
2023/10/18 10:59:04;;;;;;;14.07;9.35;;;10.40;99.90;;;;;;4945314;28;19930;-73
2023/10/18 11:04:25;;;;;;;13.48;9.73;;;10.60;99.90;;;;;;4956522;28;20051;-68
2023/10/18 11:07:01;;;;;;;14.90;10.40;;;10.50;99.90;;;;;;4961326;28;20494;-69
2023/10/18 11:09:34;;;;;;;12.68;9.23;;;10.90;99.90;;;;;;4954404;28;20059;-70
2023/10/18 11:12:17;;;;;;;14.57;9.18;;;10.70;99.90;;;;;;4961508;28;20516;-69
2023/10/18 11:14:44;;;;;;;13.48;9.43;;;10.80;99.90;;;;;;4964303;28;20043;-69
2023/10/18 11:20:30;;;;;;;16.88;9.82;;;10.90;99.90;;;;;;4943598;29;20054;-68
2023/10/18 11:22:41;;;;;;;13.35;8.98;;;10.60;99.90;;;;;;4939411;28;20470;-69
2023/10/18 11:25:09;;;;;;;16.02;9.43;;;11.00;99.90;;;;;;4947036;28;20051;-69
2023/10/18 11:27:37;;;;;;;14.10;9.15;;;11.00;99.90;;;;;;4961360;28;20070;-69
2023/10/18 11:30:25;;;;;;;16.90;9.50;;;11.00;99.90;;;;;;4943878;29;20047;-68
2023/10/18 11:32:53;;;;;;;13.73;9.10;;;11.00;99.90;;;;;;4953336;28;20118;-68
2023/10/18 11:35:42;;;;;;;12.48;9.05;;;11.10;99.90;;;;;;4960704;28;20047;-68
2023/10/18 11:38:13;;;;;;;11.50;8.38;;;11.10;99.90;;;;;;4938399;29;20110;-69
2023/10/18 11:40:48;;;;;;;14.68;9.18;;;11.30;99.90;;;;;;4961006;28;20043;-73
2023/10/18 11:43:27;;;;;;;11.85;8.80;;;11.20;99.90;;;;;;4947825;28;20086;-69
2023/10/18 11:46:07;;;;;;;17.70;9.20;;;11.40;99.90;;;;;;4963662;28;20046;-69
2023/10/18 11:48:34;;;;;;;12.98;8.20;;;11.30;99.90;;;;;;4961526;28;20055;-69
2023/10/18 11:51:02;;;;;;;12.60;8.43;;;11.40;99.90;;;;;;4952351;28;20089;-70
2023/10/18 11:53:28;;;;;;;12.52;8.15;;;11.40;99.90;;;;;;4943657;29;20065;-69
2023/10/18 11:55:59;;;;;;;12.27;8.88;;;11.40;99.90;;;;;;4944970;28;20098;-69
2023/10/18 11:58:35;;;;;;;10.48;7.68;;;11.50;99.90;;;;;;4959755;28;20102;-70
2023/10/18 12:01:15;;;;;;;13.63;8.18;;;11.50;99.90;;;;;;4962553;28;20122;-69
2023/10/18 12:03:44;;;;;;;11.25;8.38;;;11.50;99.90;;;;;;4963405;28;20067;-69
2023/10/18 12:06:11;;;;;;;11.20;7.90;;;11.70;99.90;;;;;;4961038;28;20046;-70
2023/10/18 12:11:28;;;;;;;13.07;8.43;;;11.70;99.90;;;;;;4953367;28;20576;-72
2023/10/18 12:13:53;;;;;;;11.85;8.23;;;11.80;99.90;;;;;;4927227;29;20138;-69
2023/10/18 12:16:22;;;;;;;12.52;8.05;;;11.80;99.90;;;;;;4962680;28;20475;-69
2023/10/18 12:18:48;;;;;;;11.82;7.85;;;11.70;99.90;;;;;;4945671;28;20117;-70
2023/10/18 12:21:14;;;;;;;10.57;7.80;;;12.00;99.90;;;;;;4962497;28;20182;-70
2023/10/18 12:23:41;;;;;;;11.80;7.97;;;11.80;99.90;;;;;;4943271;29;20118;-70
2023/10/18 12:26:08;;;;;;;11.60;7.90;;;11.90;99.90;;;;;;4960652;28;20122;-69
2023/10/18 12:28:37;;;;;;;11.93;8.15;;;11.90;99.90;;;;;;4945449;28;20055;-69
2023/10/18 12:31:12;;;;;;;12.65;8.45;;;11.90;99.90;;;;;;4963273;28;20043;-70
2023/10/18 12:33:40;;;;;;;14.98;8.43;;;11.90;99.90;;;;;;4942793;28;20046;-70
2023/10/18 12:36:10;;;;;;;10.27;7.65;;;11.90;99.90;;;;;;4942863;29;20112;-68
2023/10/18 12:38:38;;;;;;;9.20;7.15;;;11.90;99.90;;;;;;4961325;28;20063;-70
2023/10/18 12:41:27;;;;;;;11.32;7.80;;;11.90;99.90;;;;;;4946041;28;20122;-70
2023/10/18 12:43:53;;;;;;;11.18;7.60;;;11.90;99.90;;;;;;4952206;28;20055;-69
2023/10/18 12:46:22;;;;;;;11.77;8.00;;;12.00;99.90;;;;;;4960264;28;20051;-71
2023/10/18 12:48:51;;;;;;;11.18;7.60;;;11.90;99.90;;;;;;4961106;28;20058;-69
2023/10/18 12:51:18;;;;;;;10.35;7.10;;;12.00;99.90;;;;;;4945651;28;20082;-70
2023/10/18 12:53:47;;;;;;;11.60;8.00;;;11.90;99.90;;;;;;4962020;28;20055;-70
2023/10/18 12:56:31;;;;;;;12.82;7.75;;;12.00;99.90;;;;;;4959738;28;20090;-69
2023/10/18 12:58:58;;;;;;;14.82;7.22;;;12.10;99.90;;;;;;4961446;28;20062;-70
2023/10/18 13:01:32;;;;;;;12.20;6.60;;;12.10;99.90;;;;;;4962686;28;20039;-70
2023/10/18 13:04:06;;;;;;;12.05;7.50;;;12.10;99.90;;;;;;4961706;28;20034;-69
2023/10/18 13:06:35;;;;;;;10.00;7.03;;;12.30;99.90;;;;;;4942447;29;20043;-70
2023/10/18 13:11:54;;;;;;;9.68;7.35;;;12.20;99.90;;;;;;4962591;28;20509;-70
2023/10/18 13:14:24;;;;;;;12.35;7.43;;;12.20;99.90;;;;;;4959611;28;20138;-70
2023/10/18 13:16:51;;;;;;;10.38;7.38;;;12.20;99.90;;;;;;4959544;28;20039;-69
2023/10/18 13:19:19;;;;;;;12.30;7.22;;;12.30;99.90;;;;;;4960929;28;20058;-70
2023/10/18 13:21:47;;;;;;;11.98;7.10;;;12.30;99.90;;;;;;4962784;28;20118;-70
2023/10/18 13:26:51;;;;;;;11.55;7.72;;;12.40;99.90;;;;;;4942387;29;20134;-70
2023/10/18 13:31:47;;;;;;;9.45;7.03;;;12.60;99.90;;;;;;4951049;28;20117;-69
2023/10/18 13:34:18;;;;;;;9.70;6.63;;;12.70;99.90;;;;;;4944785;28;20069;-70
2023/10/18 13:36:48;;;;;;;10.43;6.55;;;12.90;99.90;;;;;;4951292;28;20054;-70
2023/10/18 13:39:16;;;;;;;11.43;6.65;;;13.00;99.90;;;;;;4959243;28;20542;-70
2023/10/18 13:41:49;;;;;;;12.48;6.68;;;13.10;99.90;;;;;;4961568;28;20083;-69
2023/10/18 13:44:19;;;;;;;10.30;6.93;;;13.30;99.90;;;;;;4962452;28;20476;-70
2023/10/18 13:46:52;;;;;;;12.52;6.95;;;13.50;99.90;;;;;;4960797;28;20050;-69
2023/10/18 13:49:23;;;;;;;11.20;6.93;;;13.50;99.90;;;;;;4942162;29;20063;-72
2023/10/18 13:51:50;;;;;;;11.23;7.05;;;13.50;99.90;;;;;;4960963;28;20051;-70
2023/10/18 13:54:16;;;;;;;11.93;7.07;;;13.40;99.90;;;;;;4962227;28;20563;-71
2023/10/18 13:56:43;;;;;;;11.15;7.07;;;13.30;99.90;;;;;;4944775;28;20043;-71
2023/10/18 13:59:09;;;;;;;9.93;6.55;;;13.10;99.90;;;;;;4951454;28;20043;-69
2023/10/18 14:01:38;;;;;;;13.13;7.05;;;13.00;99.90;;;;;;4959276;28;20043;-70
2023/10/18 14:04:05;;;;;;;13.18;6.88;;;12.90;99.90;;;;;;4927859;28;20057;-71